Time;durP1;ratioP1;P1;durP2;ratioP2;P2;SDS_P1;SDS_P2;PMS_P1;PMS_P2;Temp;Humidity;BMP_temperature;BMP_pressure;BME280_temperature;BME280_humidity;BME280_pressure;Samples;Min_cycle;Max_cycle;Signal;HPM_P1;HPM_P2
2023/03/13 00:01:20;;;;;;;18.08;7.68;;;;;;;7.49;44.72;99742.00;5092159;28;20093;-59
2023/03/13 00:03:46;;;;;;;14.48;7.05;;;;;;;7.54;44.38;99724.50;5092073;28;20036;-58
2023/03/13 00:06:12;;;;;;;15.65;7.78;;;;;;;7.51;44.63;99727.16;5093370;28;20046;-59
2023/03/13 00:08:38;;;;;;;16.55;7.40;;;;;;;7.54;44.58;99721.00;5093299;28;20028;-59
2023/03/13 00:11:06;;;;;;;15.50;7.57;;;;;;;7.47;44.80;99709.81;5093513;28;20059;-59
2023/03/13 00:13:32;;;;;;;19.23;9.48;;;;;;;7.44;45.00;99703.78;5093461;28;20074;-59
2023/03/13 00:16:02;;;;;;;20.17;10.05;;;;;;;7.44;45.02;99702.03;5093074;28;20075;-59
2023/03/13 00:18:27;;;;;;;18.55;8.95;;;;;;;7.45;44.92;99708.97;5091934;28;20051;-59
2023/03/13 00:21:02;;;;;;;19.40;9.25;;;;;;;7.43;45.23;99692.47;5091497;28;20480;-59
2023/03/13 00:23:28;;;;;;;18.83;8.93;;;;;;;7.51;45.00;99701.03;5093176;28;20024;-59
2023/03/13 00:26:05;;;;;;;20.40;8.95;;;;;;;7.46;45.31;99700.25;5091453;28;20040;-59
2023/03/13 00:28:32;;;;;;;20.90;9.27;;;;;;;7.52;44.96;99697.50;5093445;28;20032;-59
2023/03/13 00:31:05;;;;;;;18.20;8.75;;;;;;;7.53;44.99;99694.00;5092762;28;20387;-59
2023/03/13 00:33:33;;;;;;;19.67;9.18;;;;;;;7.57;44.95;99682.56;5093164;28;20121;-59
2023/03/13 00:36:12;;;;;;;19.17;9.65;;;;;;;7.59;45.01;99678.19;5092700;28;20392;-59
2023/03/13 00:38:37;;;;;;;16.05;8.07;;;;;;;7.59;45.00;99672.13;5090970;28;20044;-59
2023/03/13 00:41:11;;;;;;;20.73;9.27;;;;;;;7.56;44.96;99662.56;5092873;28;20162;-59
2023/03/13 00:43:37;;;;;;;18.13;8.77;;;;;;;7.61;44.89;99654.63;5092553;28;20032;-59
2023/03/13 00:46:03;;;;;;;16.50;8.00;;;;;;;7.68;44.95;99671.06;5092986;28;20403;-59
2023/03/13 00:48:29;;;;;;;17.52;7.88;;;;;;;7.75;44.69;99672.66;5092798;28;20036;-59
2023/03/13 00:50:54;;;;;;;16.75;7.47;;;;;;;7.81;44.79;99670.75;5092710;28;20070;-59
2023/03/13 00:53:20;;;;;;;16.95;7.93;;;;;;;7.82;44.72;99658.53;5091593;28;20051;-59
2023/03/13 00:56:08;;;;;;;19.83;9.70;;;;;;;7.82;45.16;99653.28;5092454;28;20115;-59
2023/03/13 00:58:36;;;;;;;18.23;8.95;;;;;;;7.81;44.94;99656.81;5092903;28;20475;-59
2023/03/13 01:01:13;;;;;;;17.92;8.75;;;;;;;7.79;45.13;99658.63;5091449;28;20501;-59
2023/03/13 01:03:40;;;;;;;14.57;7.65;;;;;;;7.79;44.94;99646.41;5092606;28;20145;-59
2023/03/13 01:06:09;;;;;;;18.42;8.52;;;;;;;7.78;45.13;99631.59;5092695;28;20032;-59
2023/03/13 01:08:35;;;;;;;21.20;8.68;;;;;;;7.74;45.08;99642.13;5092431;28;20040;-59
2023/03/13 01:11:15;;;;;;;16.42;8.10;;;;;;;7.70;45.34;99654.44;5092631;28;20072;-59
2023/03/13 01:13:41;;;;;;;15.85;7.93;;;;;;;7.68;45.39;99645.75;5092609;28;20036;-59
2023/03/13 01:16:08;;;;;;;15.35;7.65;;;;;;;7.72;45.45;99642.19;5092622;28;20474;-59
2023/03/13 01:18:35;;;;;;;15.13;7.63;;;;;;;7.76;45.30;99642.97;5091145;28;20116;-57
2023/03/13 01:21:01;;;;;;;18.05;8.00;;;;;;;7.74;45.40;99631.69;5091308;28;20403;-59
2023/03/13 01:23:26;;;;;;;16.23;7.78;;;;;;;7.72;45.37;99621.25;5092892;28;20036;-59
2023/03/13 01:25:54;;;;;;;20.73;8.52;;;;;;;7.74;45.55;99610.75;5091057;28;20453;-59
2023/03/13 01:28:19;;;;;;;20.45;8.60;;;;;;;7.75;45.50;99602.03;5092454;28;20054;-59
2023/03/13 01:30:45;;;;;;;18.50;8.32;;;;;;;7.72;45.56;99600.34;5092228;28;20476;-60
2023/03/13 01:33:10;;;;;;;17.48;8.98;;;;;;;7.76;45.40;99598.53;5091111;28;20036;-58
2023/03/13 01:35:35;;;;;;;18.13;8.77;;;;;;;7.72;45.68;99579.44;5092492;28;20094;-59
2023/03/13 01:38:01;;;;;;;16.10;8.05;;;;;;;7.69;45.80;99582.09;5090833;28;20044;-59
2023/03/13 01:40:26;;;;;;;16.45;7.38;;;;;;;7.64;45.91;99582.22;5074320;28;20032;-59
2023/03/13 01:42:55;;;;;;;14.77;8.23;;;;;;;7.60;46.09;99579.72;5092217;28;20123;-59
2023/03/13 01:45:53;;;;;;;15.88;8.02;;;;;;;7.53;46.62;99562.44;5091124;28;20459;-59
2023/03/13 01:48:25;;;;;;;16.05;7.82;;;;;;;7.60;46.23;99548.34;5086980;28;20028;-59
2023/03/13 01:50:53;;;;;;;15.88;7.63;;;;;;;7.54;46.46;99553.69;5093953;28;20028;-59
2023/03/13 01:53:18;;;;;;;13.95;7.32;;;;;;;7.59;46.37;99542.25;5096052;28;20487;-59
2023/03/13 01:55:44;;;;;;;12.77;6.35;;;;;;;7.56;46.52;99526.63;5095695;28;20039;-60
2023/03/13 01:58:09;;;;;;;14.50;6.75;;;;;;;7.52;46.80;99524.97;5095591;28;20042;-60
2023/03/13 02:00:36;;;;;;;14.15;6.43;;;;;;;7.52;46.62;99534.56;5094418;28;20071;-60
2023/03/13 02:03:08;;;;;;;12.90;6.60;;;;;;;7.50;47.09;99537.25;5076618;28;20097;-60
2023/03/13 02:05:34;;;;;;;11.40;5.93;;;;;;;7.59;46.74;99531.78;5095783;28;20024;-59
2023/03/13 02:08:02;;;;;;;12.82;5.90;;;;;;;7.69;46.88;99549.88;5095839;28;20335;-60
2023/03/13 02:10:30;;;;;;;13.68;6.15;;;;;;;7.74;46.78;99551.50;5095486;28;20028;-60
2023/03/13 02:12:56;;;;;;;11.90;5.68;;;;;;;7.81;46.69;99541.72;5094187;28;20036;-60
2023/03/13 02:15:25;;;;;;;10.90;5.82;;;;;;;7.85;46.86;99546.00;5094465;28;20458;-60
2023/03/13 02:17:51;;;;;;;13.55;5.50;;;;;;;7.89;46.76;99545.88;5095286;28;20028;-60
2023/03/13 02:20:21;;;;;;;12.73;5.88;;;;;;;7.86;46.86;99534.66;5095569;28;20032;-60
2023/03/13 02:22:59;;;;;;;12.50;5.72;;;;;;;7.91;47.31;99551.09;5095162;28;20039;-60
2023/03/13 02:25:34;;;;;;;12.52;5.93;;;;;;;7.98;47.00;99549.16;5071217;28;20071;-60
2023/03/13 02:28:07;;;;;;;12.82;5.90;;;;;;;8.02;46.80;99550.81;5094907;28;20040;-60
2023/03/13 02:30:33;;;;;;;;;;;;;;;7.96;48.00;99546.59;5094321;28;20075;-59
2023/03/13 02:33:00;;;;;;;12.88;6.07;;;;;;;8.03;46.68;99542.94;5094746;28;19940;-60
2023/03/13 02:35:26;;;;;;;11.80;5.25;;;;;;;8.17;46.42;99536.50;5093894;28;20024;-60
2023/03/13 02:37:59;;;;;;;9.05;5.43;;;;;;;8.19;46.83;99532.09;5095025;28;20036;-60
2023/03/13 02:40:33;;;;;;;12.60;6.22;;;;;;;8.26;46.80;99528.41;5095248;28;20039;-60
2023/03/13 02:43:01;;;;;;;10.82;6.10;;;;;;;8.31;46.49;99526.56;5094691;28;20043;-59
2023/03/13 02:45:27;;;;;;;13.52;5.30;;;;;;;8.33;46.50;99535.22;5093811;28;20028;-59
2023/03/13 02:47:52;;;;;;;12.45;5.32;;;;;;;8.33;46.72;99524.75;5094747;28;20032;-59
2023/03/13 02:50:19;;;;;;;9.68;5.15;;;;;;;8.37;46.70;99531.66;5093710;28;20035;-60
2023/03/13 02:52:54;;;;;;;9.77;4.55;;;;;;;8.41;46.64;99522.81;5094614;28;20111;-59
2023/03/13 02:55:33;;;;;;;10.05;5.15;;;;;;;8.44;46.77;99522.75;5089086;28;20020;-59
2023/03/13 02:57:59;;;;;;;12.32;5.38;;;;;;;8.47;46.53;99516.56;5089590;28;20035;-59
2023/03/13 03:00:25;;;;;;;13.07;5.18;;;;;;;8.52;46.63;99526.00;5093893;28;20044;-59
2023/03/13 03:02:53;;;;;;;11.35;5.20;;;;;;;8.59;46.32;99521.47;5075370;28;20122;-60
2023/03/13 03:05:19;;;;;;;8.75;5.13;;;;;;;8.54;46.69;99516.38;5094502;28;20099;-60
2023/03/13 03:07:44;;;;;;;12.23;5.20;;;;;;;8.54;46.62;99521.59;5094505;28;20036;-60
2023/03/13 03:10:10;;;;;;;11.02;5.65;;;;;;;8.55;47.02;99518.09;5094362;28;20032;-60
2023/03/13 03:12:36;;;;;;;11.25;5.75;;;;;;;8.59;46.89;99514.47;5093298;28;20073;-60
2023/03/13 03:15:03;;;;;;;9.82;5.32;;;;;;;8.62;46.89;99511.78;5093602;28;20032;-60
2023/03/13 03:17:29;;;;;;;11.07;5.68;;;;;;;8.69;46.80;99517.69;5093762;28;20033;-60
2023/03/13 03:19:55;;;;;;;9.85;5.38;;;;;;;8.71;46.78;99509.81;5093530;28;20075;-60
2023/03/13 03:22:20;;;;;;;12.10;6.15;;;;;;;8.72;46.97;99501.03;5094675;28;20039;-60
2023/03/13 03:24:45;;;;;;;11.73;6.10;;;;;;;8.67;47.10;99495.09;5094807;28;20035;-60
2023/03/13 03:27:11;;;;;;;10.85;5.72;;;;;;;8.66;47.17;99495.97;5094587;28;20036;-60
2023/03/13 03:29:36;;;;;;;13.55;5.90;;;;;;;8.68;47.25;99499.41;5093570;28;20472;-60
2023/03/13 03:32:02;;;;;;;11.82;5.93;;;;;;;8.71;47.31;99494.94;5093145;28;20055;-60
2023/03/13 03:34:27;;;;;;;14.55;6.78;;;;;;;8.73;47.35;99487.91;5094414;28;20035;-60
2023/03/13 03:36:53;;;;;;;12.32;5.93;;;;;;;8.74;47.38;99483.53;5094539;28;20079;-60
2023/03/13 03:39:18;;;;;;;16.35;8.15;;;;;;;8.70;47.75;99479.25;5094677;28;20040;-60
2023/03/13 03:41:43;;;;;;;14.52;6.88;;;;;;;8.69;47.89;99480.16;5093126;28;20028;-60
2023/03/13 03:44:09;;;;;;;13.75;6.68;;;;;;;8.75;47.85;99480.00;5094655;28;20039;-61
2023/03/13 03:46:34;;;;;;;16.77;7.53;;;;;;;8.62;48.39;99480.34;5076405;28;20039;-61
2023/03/13 03:49:00;;;;;;;15.48;6.75;;;;;;;8.71;48.35;99478.38;5076431;28;20040;-61
2023/03/13 03:51:25;;;;;;;11.68;6.55;;;;;;;8.78;48.12;99474.69;5093211;28;20039;-59
2023/03/13 03:53:52;;;;;;;12.07;6.15;;;;;;;8.79;48.24;99461.53;5094319;28;20063;-60
2023/03/13 03:56:17;;;;;;;14.75;5.95;;;;;;;8.82;48.16;99463.22;5094166;28;20070;-61
2023/03/13 03:58:43;;;;;;;11.38;6.28;;;;;;;8.75;48.45;99464.28;5093742;28;20503;-60
2023/03/13 04:01:08;;;;;;;13.23;6.40;;;;;;;8.77;48.51;99462.47;5094166;28;20035;-60
2023/03/13 04:03:33;;;;;;;13.52;6.72;;;;;;;8.82;48.47;99455.38;5093884;28;20086;-60
2023/03/13 04:05:59;;;;;;;12.70;6.22;;;;;;;8.83;48.54;99457.94;5092461;28;20054;-60
2023/03/13 04:08:25;;;;;;;13.68;7.00;;;;;;;8.84;48.42;99458.78;5093352;28;20031;-60
2023/03/13 04:10:50;;;;;;;14.75;6.72;;;;;;;8.87;48.50;99464.78;5092396;28;20040;-60
2023/03/13 04:13:16;;;;;;;19.27;8.60;;;;;;;8.94;48.44;99468.09;5092096;28;20060;-61
2023/03/13 04:15:41;;;;;;;12.27;6.88;;;;;;;8.97;48.46;99477.63;5071862;28;20039;-61
2023/03/13 04:18:07;;;;;;;12.73;7.00;;;;;;;9.01;48.41;99477.47;5092211;28;20028;-60
2023/03/13 04:20:33;;;;;;;18.20;8.95;;;;;;;9.01;48.46;99471.38;5093745;28;20036;-60
2023/03/13 04:22:59;;;;;;;17.67;8.38;;;;;;;9.04;48.63;99466.91;5093815;28;20103;-60
2023/03/13 04:25:24;;;;;;;19.83;8.68;;;;;;;9.04;48.63;99461.66;5093920;28;20528;-60
2023/03/13 04:27:50;;;;;;;16.30;8.30;;;;;;;9.03;48.74;99453.88;5093021;28;20032;-60
2023/03/13 04:30:16;;;;;;;15.88;8.02;;;;;;;9.00;48.84;99441.69;5092091;28;20044;-60
2023/03/13 04:32:41;;;;;;;15.20;8.27;;;;;;;8.99;49.21;99445.25;5088736;28;20119;-60
2023/03/13 04:35:08;;;;;;;16.23;7.90;;;;;;;8.95;49.21;99438.38;5092813;28;20116;-60
2023/03/13 04:37:33;;;;;;;12.68;6.68;;;;;;;8.97;49.31;99439.16;5093578;28;20059;-60
2023/03/13 04:39:59;;;;;;;14.65;7.65;;;;;;;8.97;49.49;99427.84;5071248;28;20382;-58
2023/03/13 04:42:25;;;;;;;17.20;8.10;;;;;;;8.86;49.90;99425.56;5092746;28;20470;-59
2023/03/13 04:44:50;;;;;;;17.02;7.80;;;;;;;8.85;50.06;99419.44;5092728;28;20399;-59
2023/03/13 04:47:16;;;;;;;17.73;8.40;;;;;;;8.92;50.08;99420.13;5093511;28;20064;-59
2023/03/13 04:49:41;;;;;;;15.82;7.75;;;;;;;8.96;49.99;99415.66;5093842;28;20119;-59
2023/03/13 04:52:07;;;;;;;17.40;7.88;;;;;;;8.93;49.92;99421.81;5092710;28;20403;-59
2023/03/13 04:54:33;;;;;;;12.60;7.13;;;;;;;8.95;50.13;99411.31;5091358;28;20043;-59
2023/03/13 04:56:58;;;;;;;17.42;8.63;;;;;;;8.85;50.41;99413.34;5093549;28;20032;-59
2023/03/13 04:59:23;;;;;;;16.52;8.60;;;;;;;8.78;50.81;99401.34;5092110;28;20039;-59
2023/03/13 05:01:49;;;;;;;15.77;8.65;;;;;;;8.84;50.81;99395.91;5092003;28;20426;-59
2023/03/13 05:04:15;;;;;;;15.75;8.18;;;;;;;8.86;50.83;99389.75;5075345;28;20040;-59
2023/03/13 05:06:40;;;;;;;14.50;7.78;;;;;;;8.92;50.84;99386.06;5093567;28;20044;-59
2023/03/13 05:09:06;;;;;;;17.70;9.07;;;;;;;8.88;51.18;99376.59;5092212;28;20032;-59
2023/03/13 05:11:32;;;;;;;18.02;9.02;;;;;;;8.86;51.12;99373.16;5093301;28;20040;-59
2023/03/13 05:13:57;;;;;;;18.48;8.70;;;;;;;8.99;50.95;99369.25;5093278;28;20032;-59
2023/03/13 05:16:23;;;;;;;16.13;8.35;;;;;;;8.92;51.33;99374.72;5092060;28;20089;-59
2023/03/13 05:18:48;;;;;;;16.80;8.60;;;;;;;9.00;51.09;99370.09;5091974;28;20064;-59
2023/03/13 05:21:14;;;;;;;14.23;8.48;;;;;;;9.03;51.12;99370.03;5075454;28;20032;-59
2023/03/13 05:23:39;;;;;;;15.98;8.65;;;;;;;9.06;51.30;99369.94;5092072;28;20475;-60
2023/03/13 05:26:05;;;;;;;15.40;8.30;;;;;;;9.08;51.22;99368.94;5093147;28;20028;-59
2023/03/13 05:28:30;;;;;;;17.55;9.48;;;;;;;9.12;51.40;99367.94;5096704;28;20059;-60
2023/03/13 05:30:56;;;;;;;19.02;9.38;;;;;;;9.14;51.40;99362.69;5078174;28;20028;-59
2023/03/13 05:33:21;;;;;;;16.77;8.70;;;;;;;9.20;51.24;99366.84;5094926;28;20032;-60
2023/03/13 05:35:47;;;;;;;18.23;9.15;;;;;;;9.13;51.48;99351.31;5095363;28;20437;-59
2023/03/13 05:38:13;;;;;;;20.00;10.05;;;;;;;9.13;51.84;99345.22;5094346;28;20044;-59
2023/03/13 05:40:39;;;;;;;18.65;9.07;;;;;;;9.15;51.79;99353.06;5094733;28;20052;-59
2023/03/13 05:43:04;;;;;;;16.90;9.15;;;;;;;9.21;51.70;99347.59;5095629;28;20101;-59
2023/03/13 05:45:30;;;;;;;17.17;9.40;;;;;;;9.17;52.45;99344.22;5096484;28;20046;-59
2023/03/13 05:47:57;;;;;;;16.70;9.35;;;;;;;9.20;51.94;99341.50;5095683;28;20044;-59
2023/03/13 05:50:23;;;;;;;18.77;9.38;;;;;;;9.15;52.41;99338.19;5097032;28;20032;-58
2023/03/13 05:52:49;;;;;;;20.55;10.38;;;;;;;9.12;52.63;99338.28;5094652;28;20032;-60
2023/03/13 05:55:15;;;;;;;19.65;9.50;;;;;;;9.21;52.49;99334.50;5091264;28;20036;-59
2023/03/13 05:57:45;;;;;;;20.35;10.70;;;;;;;9.28;52.63;99341.25;5094258;28;20058;-60
2023/03/13 06:00:11;;;;;;;19.25;10.43;;;;;;;9.33;52.38;99341.94;5094966;28;20036;-60
2023/03/13 06:02:37;;;;;;;23.50;10.70;;;;;;;9.35;52.43;99342.78;5078313;28;20036;-60
2023/03/13 06:05:03;;;;;;;19.83;10.05;;;;;;;9.35;52.48;99338.38;5096765;28;20043;-60
2023/03/13 06:07:28;;;;;;;18.88;10.57;;;;;;;9.34;52.34;99330.56;5095128;28;20034;-60
2023/03/13 06:09:54;;;;;;;21.55;11.52;;;;;;;9.35;52.70;99333.13;5096309;28;20463;-60
2023/03/13 06:12:19;;;;;;;28.05;13.20;;;;;;;9.36;53.08;99334.00;5061514;28;20043;-60
2023/03/13 06:14:44;;;;;;;27.52;13.82;;;;;;;9.48;52.76;99330.09;5094874;28;20032;-60
2023/03/13 06:17:10;;;;;;;23.40;12.60;;;;;;;9.46;53.03;99327.53;5095955;28;20036;-60
2023/03/13 06:19:35;;;;;;;20.25;11.20;;;;;;;9.67;52.57;99325.09;5094764;28;20043;-60
2023/03/13 06:22:01;;;;;;;24.23;11.65;;;;;;;9.75;52.41;99320.44;5093115;28;20040;-60
2023/03/13 06:24:26;;;;;;;21.23;11.32;;;;;;;9.73;52.57;99320.47;5076011;28;20029;-59
2023/03/13 06:26:52;;;;;;;23.40;12.15;;;;;;;9.86;52.31;99315.66;5057557;28;20533;-59
2023/03/13 06:29:17;;;;;;;19.88;10.98;;;;;;;9.90;52.20;99312.03;5074340;28;20036;-60
2023/03/13 06:31:43;;;;;;;23.80;10.80;;;;;;;9.82;52.59;99299.19;5057947;28;20032;-60
2023/03/13 06:34:12;;;;;;;21.38;11.60;;;;;;;9.76;53.29;99293.28;5075611;28;20044;-59
2023/03/13 06:36:38;;;;;;;21.02;10.95;;;;;;;9.86;52.53;99294.69;5073650;28;20106;-59
2023/03/13 06:39:03;;;;;;;20.55;11.68;;;;;;;9.90;52.51;99290.19;5075473;28;20445;-60
2023/03/13 06:41:29;;;;;;;22.33;11.10;;;;;;;9.92;53.04;99293.59;5074070;28;20116;-60
2023/03/13 06:43:55;;;;;;;21.05;10.60;;;;;;;9.77;53.49;99287.13;5074004;28;20078;-60
2023/03/13 06:46:22;;;;;;;21.88;11.20;;;;;;;9.84;53.17;99273.72;5075563;28;20082;-60
2023/03/13 06:48:48;;;;;;;22.67;11.18;;;;;;;9.72;53.34;99274.16;5074247;28;20070;-60
2023/03/13 06:51:15;;;;;;;25.20;12.15;;;;;;;9.64;53.68;99273.59;5040887;28;20056;-60
2023/03/13 06:53:42;;;;;;;20.83;11.05;;;;;;;9.75;53.64;99267.97;5074068;28;20543;-60
2023/03/13 06:56:08;;;;;;;22.95;12.82;;;;;;;9.82;53.59;99269.47;5074148;28;20024;-60
2023/03/13 06:58:34;;;;;;;21.85;10.73;;;;;;;9.87;53.52;99276.25;5075024;28;20437;-60
2023/03/13 07:01:06;;;;;;;21.85;10.77;;;;;;;9.97;53.49;99270.66;5084182;28;20547;-59
2023/03/13 07:03:32;;;;;;;24.02;12.07;;;;;;;10.08;53.17;99271.13;5094339;28;20071;-61
2023/03/13 07:05:58;;;;;;;24.05;12.05;;;;;;;10.09;53.17;99265.84;5091350;28;20075;-60
2023/03/13 07:08:24;;;;;;;22.60;10.75;;;;;;;10.14;53.12;99259.56;5094532;28;20463;-60
2023/03/13 07:10:51;;;;;;;22.63;11.35;;;;;;;10.18;53.05;99258.53;5093861;28;20128;-60
2023/03/13 07:13:18;;;;;;;26.23;13.35;;;;;;;10.27;52.82;99256.44;5094797;28;20097;-60
2023/03/13 07:15:44;;;;;;;21.17;11.70;;;;;;;10.28;52.95;99257.28;5093888;28;20040;-61
2023/03/13 07:18:10;;;;;;;23.25;13.43;;;;;;;10.29;53.09;99251.09;5092572;28;20505;-60
2023/03/13 07:20:35;;;;;;;26.20;13.20;;;;;;;10.32;52.98;99248.38;5092250;28;20027;-61
2023/03/13 07:23:01;;;;;;;24.05;12.63;;;;;;;10.40;53.02;99240.19;5094540;28;20036;-61
2023/03/13 07:25:26;;;;;;;24.85;12.63;;;;;;;10.51;52.96;99238.88;5093577;28;20463;-61
2023/03/13 07:27:52;;;;;;;19.08;11.35;;;;;;;10.68;52.58;99242.59;5093244;28;20441;-59
2023/03/13 07:30:18;;;;;;;21.45;12.00;;;;;;;10.84;52.30;99236.66;5092564;28;20438;-60
2023/03/13 07:32:44;;;;;;;22.08;12.63;;;;;;;11.00;51.92;99218.47;5093515;28;20035;-60
2023/03/13 07:35:09;;;;;;;23.52;12.65;;;;;;;11.18;51.69;99221.28;5093010;28;20102;-60
2023/03/13 07:37:35;;;;;;;23.70;12.63;;;;;;;11.26;51.50;99211.28;5093324;28;20051;-61
2023/03/13 07:40:00;;;;;;;23.77;13.63;;;;;;;11.38;51.33;99213.38;5091509;28;20032;-60
2023/03/13 07:42:27;;;;;;;25.33;13.90;;;;;;;11.41;51.42;99207.09;5093103;28;20522;-60
2023/03/13 07:44:52;;;;;;;24.25;13.95;;;;;;;11.52;51.27;99212.75;5080674;28;20064;-60
2023/03/13 07:47:18;;;;;;;25.05;13.88;;;;;;;11.48;51.31;99216.44;5073865;28;20414;-60
2023/03/13 07:49:45;;;;;;;24.40;13.73;;;;;;;11.40;51.90;99210.66;5074182;28;20037;-60
2023/03/13 07:52:10;;;;;;;21.80;12.00;;;;;;;11.70;51.03;99197.94;5073118;28;20064;-60
2023/03/13 07:54:36;;;;;;;24.85;13.55;;;;;;;11.82;50.90;99194.75;5072766;28;20364;-60
2023/03/13 07:57:02;;;;;;;23.70;13.73;;;;;;;11.88;50.80;99191.00;5039490;28;20049;-60
2023/03/13 07:59:27;;;;;;;27.40;13.73;;;;;;;11.83;50.95;99188.59;5072967;28;20071;-60
2023/03/13 08:01:53;;;;;;;21.50;12.57;;;;;;;11.90;50.91;99189.19;5074059;28;20120;-60
2023/03/13 08:04:18;;;;;;;25.98;15.48;;;;;;;12.01;50.68;99179.88;5072788;28;20072;-60
2023/03/13 08:06:44;;;;;;;23.35;14.50;;;;;;;11.98;50.77;99166.84;5073858;28;20041;-60
2023/03/13 08:09:09;;;;;;;28.42;14.80;;;;;;;11.93;51.11;99174.09;5073902;28;20064;-60
2023/03/13 08:11:39;;;;;;;24.08;14.05;;;;;;;11.70;51.64;99171.63;5073769;28;20044;-60
2023/03/13 08:14:04;;;;;;;23.50;13.32;;;;;;;11.57;52.04;99153.78;5074005;28;20119;-60
2023/03/13 08:16:33;;;;;;;30.02;15.25;;;;;;;11.64;51.90;99145.59;5085701;28;20455;-60
2023/03/13 08:18:59;;;;;;;25.88;14.95;;;;;;;11.63;52.16;99149.16;5092753;28;20460;-61
2023/03/13 08:21:28;;;;;;;26.05;15.18;;;;;;;11.63;52.07;99143.88;5092546;28;20123;-60
2023/03/13 08:23:55;;;;;;;24.88;13.93;;;;;;;11.71;52.06;99147.03;5092506;28;20417;-60
2023/03/13 08:26:23;;;;;;;28.77;14.60;;;;;;;11.71;52.31;99139.13;5094039;28;20118;-60
2023/03/13 08:28:55;;;;;;;28.85;15.50;;;;;;;11.79;52.32;99134.38;5092792;28;20020;-60
2023/03/13 08:31:23;;;;;;;29.20;16.13;;;;;;;11.92;51.89;99132.91;5093940;28;20032;-60
2023/03/13 08:33:49;;;;;;;27.55;15.27;;;;;;;12.06;51.57;99138.38;5093725;28;20088;-60
2023/03/13 08:36:24;;;;;;;27.13;14.70;;;;;;;12.08;51.92;99131.25;5092530;28;20467;-60
2023/03/13 08:38:51;;;;;;;27.42;15.55;;;;;;;12.17;51.57;99139.63;5092393;28;20563;-60
2023/03/13 08:41:20;;;;;;;33.70;16.58;;;;;;;12.02;51.83;99130.69;5093697;28;20403;-60
2023/03/13 08:43:46;;;;;;;29.38;16.25;;;;;;;12.09;51.91;99121.59;5092491;28;20028;-60
2023/03/13 08:46:12;;;;;;;29.27;15.80;;;;;;;12.19;51.66;99125.47;5093922;28;20055;-60
2023/03/13 08:48:38;;;;;;;30.13;17.33;;;;;;;12.17;51.80;99119.44;5093434;28;20036;-60
2023/03/13 08:51:06;;;;;;;33.83;16.67;;;;;;;12.25;51.70;99113.81;5075399;28;20032;-59
2023/03/13 08:53:33;;;;;;;31.75;17.38;;;;;;;12.45;51.31;99103.16;5092575;28;20081;-60
2023/03/13 08:55:59;;;;;;;34.95;18.02;;;;;;;12.50;51.25;99111.66;5075518;28;20028;-60
2023/03/13 08:58:25;;;;;;;29.33;16.50;;;;;;;12.54;51.18;99107.94;5092267;28;20044;-60
2023/03/13 09:00:50;;;;;;;31.15;16.50;;;;;;;12.57;51.12;99101.69;5095978;28;20040;-61
2023/03/13 09:03:16;;;;;;;28.02;15.73;;;;;;;12.46;51.47;99099.56;5096504;28;20082;-59
2023/03/13 09:05:42;;;;;;;30.42;16.30;;;;;;;12.53;51.24;99100.97;5096274;28;20024;-61
2023/03/13 09:08:07;;;;;;;27.23;15.88;;;;;;;12.99;50.45;99092.50;5079550;28;20531;-60
2023/03/13 09:10:33;;;;;;;29.02;15.93;;;;;;;13.05;50.38;99094.84;5097393;28;20032;-60
2023/03/13 09:12:59;;;;;;;34.13;17.92;;;;;;;13.12;50.11;99087.44;5096131;28;20032;-60
2023/03/13 09:15:24;;;;;;;29.05;15.65;;;;;;;13.28;49.89;99083.09;5096366;28;20529;-60
2023/03/13 09:17:50;;;;;;;28.77;16.52;;;;;;;13.28;49.95;99077.81;5096101;28;20040;-60
2023/03/13 09:20:17;;;;;;;26.35;15.05;;;;;;;13.43;49.56;99074.34;5097516;28;20364;-60
2023/03/13 09:22:43;;;;;;;30.33;16.45;;;;;;;13.58;49.27;99074.47;5097214;28;20035;-60
2023/03/13 09:25:09;;;;;;;28.58;16.55;;;;;;;13.64;49.21;99060.94;5095973;28;20032;-60
2023/03/13 09:27:35;;;;;;;26.80;15.18;;;;;;;13.68;49.24;99058.03;5097162;28;20039;-60
2023/03/13 09:30:00;;;;;;;27.83;15.48;;;;;;;13.72;49.06;99042.88;5097200;28;20490;-60
2023/03/13 09:32:26;;;;;;;23.55;14.38;;;;;;;13.82;49.03;99051.16;5079083;28;20040;-60
2023/03/13 09:34:51;;;;;;;25.17;14.80;;;;;;;13.97;48.72;99043.22;5078819;28;20036;-60
2023/03/13 09:37:16;;;;;;;26.20;15.23;;;;;;;14.04;48.60;99041.06;5095340;28;20101;-60
2023/03/13 09:39:42;;;;;;;25.55;14.75;;;;;;;14.15;48.55;99033.38;5097019;28;20089;-60
2023/03/13 09:42:15;;;;;;;27.23;15.10;;;;;;;14.20;48.56;99035.75;5095635;28;20028;-60
2023/03/13 09:45:05;;;;;;;29.63;17.08;;;;;;;14.21;48.83;99034.84;5096958;28;20028;-60
2023/03/13 09:47:51;;;;;;;30.08;16.00;;;;;;;14.22;49.14;99023.31;5096712;28;20032;-60
2023/03/13 09:50:23;;;;;;;30.85;16.33;;;;;;;14.29;48.63;99019.38;5096846;28;20028;-60
2023/03/13 09:52:54;;;;;;;29.25;15.52;;;;;;;14.31;48.64;99022.78;5095540;28;20032;-60
2023/03/13 09:55:23;;;;;;;34.85;16.25;;;;;;;14.33;48.66;99018.28;5095380;28;20544;-61
2023/03/13 09:57:53;;;;;;;30.20;16.30;;;;;;;14.53;48.58;99015.31;5095171;28;20035;-61
2023/03/13 10:00:38;;;;;;;33.67;17.23;;;;;;;14.75;48.02;99012.22;5096828;28;20051;-60
2023/03/13 10:03:10;;;;;;;34.75;17.90;;;;;;;14.78;48.21;98998.00;5094744;28;20077;-61
2023/03/13 10:05:48;;;;;;;29.42;16.90;;;;;;;14.83;47.99;98998.56;5096542;28;20040;-60
2023/03/13 10:08:23;;;;;;;28.10;15.63;;;;;;;14.79;48.52;98991.75;5096315;28;20071;-60
2023/03/13 10:11:02;;;;;;;27.65;15.98;;;;;;;14.89;48.32;98977.03;5095414;28;20039;-60
2023/03/13 10:13:45;;;;;;;22.38;14.88;;;;;;;14.95;48.49;98975.78;5076345;28;20040;-60
2023/03/13 10:16:21;;;;;;;23.75;14.55;;;;;;;14.89;48.62;98977.03;5074910;28;20060;-60
2023/03/13 10:18:53;;;;;;;23.10;14.20;;;;;;;14.88;48.60;98969.19;5074586;28;20028;-60
2023/03/13 10:21:23;;;;;;;21.25;13.75;;;;;;;15.12;47.93;98967.69;5076167;28;20067;-60
2023/03/13 10:23:51;;;;;;;24.85;14.60;;;;;;;15.26;47.83;98967.66;5076073;28;20032;-60
2023/03/13 10:26:25;;;;;;;21.02;13.68;;;;;;;15.31;48.08;98961.22;5085895;28;20115;-60
2023/03/13 10:28:51;;;;;;;22.15;13.82;;;;;;;15.35;47.98;98968.84;5095900;28;20081;-60
2023/03/13 10:31:22;;;;;;;21.52;12.85;;;;;;;15.37;48.09;98956.38;5095279;28;20032;-60
2023/03/13 10:33:47;;;;;;;23.13;13.15;;;;;;;15.39;47.74;98949.19;5095890;28;20031;-60
2023/03/13 10:36:13;;;;;;;19.30;12.85;;;;;;;15.49;47.79;98939.72;5095923;28;20044;-61
2023/03/13 10:38:50;;;;;;;21.92;14.10;;;;;;;15.42;48.27;98933.13;5096166;28;20080;-60
2023/03/13 10:41:35;;;;;;;22.60;13.80;;;;;;;15.33;48.79;98927.56;5095610;28;20110;-60
2023/03/13 10:44:13;;;;;;;17.38;11.57;;;;;;;15.40;48.25;98924.44;5096014;28;20036;-60
2023/03/13 10:46:43;;;;;;;20.00;11.68;;;;;;;15.49;48.16;98923.84;5095068;28;20061;-60
2023/03/13 10:49:17;;;;;;;19.25;12.02;;;;;;;15.32;49.16;98920.56;5095693;28;20027;-61
2023/03/13 10:51:52;;;;;;;20.73;12.32;;;;;;;15.23;49.20;98914.06;5094251;28;20035;-60
2023/03/13 10:54:31;;;;;;;20.33;12.13;;;;;;;15.11;49.98;98912.22;5095768;28;20493;-60
2023/03/13 10:57:17;;;;;;;17.67;11.65;;;;;;;15.19;49.53;98904.63;5095511;28;20097;-60
2023/03/13 10:59:46;;;;;;;21.63;12.13;;;;;;;15.21;49.15;98892.16;5094283;28;20032;-60
2023/03/13 11:02:34;;;;;;;20.77;11.07;;;;;;;15.18;49.84;98887.06;5095251;28;20096;-60
2023/03/13 11:05:21;;;;;;;17.70;10.43;;;;;;;15.28;49.25;98885.53;5095351;28;20028;-60
2023/03/13 11:07:46;;;;;;;17.52;9.85;;;;;;;15.22;49.41;98877.97;5093406;28;20043;-60
2023/03/13 11:10:21;;;;;;;15.65;10.98;;;;;;;15.19;49.72;98870.25;5094104;28;20399;-60
2023/03/13 11:12:52;;;;;;;16.80;10.10;;;;;;;15.06;50.06;98867.53;5095130;28;20107;-61
2023/03/13 11:15:34;;;;;;;16.27;10.40;;;;;;;15.07;50.21;98857.81;5095641;28;20035;-61
2023/03/13 11:18:05;;;;;;;19.33;10.27;;;;;;;15.04;50.48;98840.34;5095223;28;20036;-60
2023/03/13 11:20:38;;;;;;;17.98;10.15;;;;;;;15.19;49.87;98833.19;5095088;28;20024;-60
2023/03/13 11:23:38;;;;;;;16.52;9.70;;;;;;;15.20;50.48;98829.59;5094810;28;20028;-60
2023/03/13 11:26:35;;;;;;;15.80;9.70;;;;;;;15.06;50.86;98811.16;5093674;28;20123;-60
2023/03/13 11:29:28;;;;;;;17.63;10.63;;;;;;;15.04;50.63;98813.91;5081530;28;20101;-59
2023/03/13 11:31:59;;;;;;;17.47;10.33;;;;;;;14.92;50.75;98807.59;5095134;28;20024;-60